createdAt,value
2023-01-17T00:00:36.880Z,55.00
2023-01-17T00:03:04.722Z,55.20
2023-01-17T00:05:50.188Z,55.05
2023-01-17T00:08:55.120Z,54.96
2023-01-17T00:11:21.973Z,55.08
2023-01-17T00:13:48.608Z,54.84
2023-01-17T00:16:15.584Z,54.77
2023-01-17T00:19:02.272Z,54.84
2023-01-17T00:21:47.914Z,54.92
2023-01-17T00:24:33.543Z,55.17
2023-01-17T00:27:12.465Z,54.97
2023-01-17T00:29:39.202Z,54.83
2023-01-17T00:32:05.951Z,54.64
2023-01-17T00:34:33.440Z,54.94
2023-01-17T00:37:00.451Z,54.44
2023-01-17T00:39:27.369Z,54.59
2023-01-17T00:41:54.125Z,54.65
2023-01-17T00:44:39.964Z,54.71
2023-01-17T00:47:25.427Z,54.67
2023-01-17T00:50:10.983Z,54.65
2023-01-17T00:52:56.404Z,54.43
2023-01-17T00:55:41.828Z,54.81
2023-01-17T00:58:27.722Z,54.58
2023-01-17T01:01:13.118Z,54.41
2023-01-17T01:03:58.776Z,54.85
2023-01-17T01:06:44.206Z,54.48
2023-01-17T01:09:29.451Z,54.61
2023-01-17T01:12:14.806Z,54.32
2023-01-17T01:14:59.938Z,54.88
2023-01-17T01:17:45.459Z,54.90
2023-01-17T01:20:30.585Z,54.52
2023-01-17T01:23:15.960Z,54.73
2023-01-17T01:26:01.424Z,54.57
2023-01-17T01:28:46.919Z,54.74
2023-01-17T01:31:32.332Z,54.49
2023-01-17T01:33:59.380Z,54.88
2023-01-17T01:36:26.178Z,54.54
2023-01-17T01:38:54.535Z,54.56
2023-01-17T01:41:21.345Z,54.51
2023-01-17T01:43:53.746Z,54.71
2023-01-17T01:46:35.934Z,54.70
2023-01-17T01:49:03.438Z,54.59
2023-01-17T01:51:38.935Z,54.53
2023-01-17T01:54:19.910Z,54.95
2023-01-17T01:56:47.857Z,54.68
2023-01-17T01:59:16.447Z,55.00
2023-01-17T02:01:43.554Z,54.51
2023-01-17T02:04:11.043Z,54.58
2023-01-17T02:06:41.413Z,55.00
2023-01-17T02:09:11.456Z,55.05
2023-01-17T02:11:39.145Z,55.16
2023-01-17T02:14:08.660Z,54.76
2023-01-17T02:16:47.994Z,55.00
2023-01-17T02:19:27.175Z,55.21
2023-01-17T02:21:59.890Z,54.82
2023-01-17T02:24:42.379Z,54.83
2023-01-17T02:27:18.374Z,55.35
2023-01-17T02:29:54.867Z,55.08
2023-01-17T02:32:42.872Z,54.92
2023-01-17T02:35:14.265Z,55.06
2023-01-17T02:37:46.895Z,54.96
2023-01-17T02:40:18.764Z,55.50
2023-01-17T02:42:54.492Z,55.24
2023-01-17T02:45:21.537Z,55.49
2023-01-17T02:47:48.468Z,55.19
2023-01-17T02:50:23.626Z,55.25
2023-01-17T02:53:20.827Z,55.36
2023-01-17T02:56:05.780Z,55.22
2023-01-17T02:58:51.199Z,55.21
2023-01-17T03:01:47.979Z,55.61
2023-01-17T03:04:28.370Z,55.54
2023-01-17T03:07:00.526Z,55.50
2023-01-17T03:09:27.998Z,55.58
2023-01-17T03:11:54.924Z,55.33
2023-01-17T03:14:21.794Z,55.52
2023-01-17T03:16:48.715Z,55.46
2023-01-17T03:19:16.140Z,55.14
2023-01-17T03:21:43.063Z,55.34
2023-01-17T03:24:12.353Z,55.36
2023-01-17T03:26:47.180Z,55.19
2023-01-17T03:29:16.720Z,55.50
2023-01-17T03:31:43.516Z,55.21
2023-01-17T03:34:10.259Z,55.45
2023-01-17T03:36:36.953Z,55.21
2023-01-17T03:39:04.239Z,54.95
2023-01-17T03:41:30.946Z,55.09
2023-01-17T03:43:57.755Z,55.18
2023-01-17T03:46:27.467Z,55.24
2023-01-17T03:48:54.496Z,54.96
2023-01-17T03:51:21.172Z,55.25
2023-01-17T03:53:48.210Z,55.26
2023-01-17T03:56:15.006Z,55.39
2023-01-17T03:58:42.639Z,54.98
2023-01-17T04:01:09.824Z,55.46
2023-01-17T04:03:36.712Z,54.97
2023-01-17T04:06:03.847Z,55.12
2023-01-17T04:08:30.725Z,55.16
2023-01-17T04:10:57.470Z,55.58
2023-01-17T04:13:24.540Z,55.36
2023-01-17T04:15:51.451Z,55.36
2023-01-17T04:18:19.832Z,55.05
2023-01-17T04:20:47.158Z,55.46
2023-01-17T04:23:14.100Z,55.17
2023-01-17T04:25:40.949Z,55.46
2023-01-17T04:28:07.665Z,55.16
2023-01-17T04:30:34.433Z,55.33
2023-01-17T04:33:01.318Z,55.15
2023-01-17T04:35:30.403Z,55.36
2023-01-17T04:37:57.381Z,55.11
2023-01-17T04:40:24.031Z,55.61
2023-01-17T04:42:51.615Z,55.37
2023-01-17T04:45:18.595Z,55.50
2023-01-17T04:47:45.610Z,55.45
2023-01-17T04:50:12.662Z,55.39
2023-01-17T04:52:39.609Z,55.36
2023-01-17T04:55:06.936Z,55.25
2023-01-17T04:57:33.652Z,55.16
2023-01-17T05:00:00.390Z,55.15
2023-01-17T05:02:27.406Z,55.48
2023-01-17T05:04:54.267Z,55.37
2023-01-17T05:07:21.140Z,55.11
2023-01-17T05:09:48.112Z,55.33
2023-01-17T05:12:15.022Z,54.94
2023-01-17T05:14:41.846Z,55.24
2023-01-17T05:17:11.207Z,55.30
2023-01-17T05:19:37.994Z,55.29
2023-01-17T05:22:14.849Z,55.10
2023-01-17T05:24:43.107Z,55.24
2023-01-17T05:27:10.712Z,55.09
2023-01-17T05:29:37.540Z,54.99
2023-01-17T05:32:06.077Z,55.00
2023-01-17T05:34:33.448Z,54.61
2023-01-17T05:37:00.189Z,55.18
2023-01-17T05:39:27.243Z,54.98
2023-01-17T05:41:54.096Z,54.52
2023-01-17T05:44:21.051Z,54.70
2023-01-17T05:46:47.920Z,54.62
2023-01-17T05:49:14.671Z,54.53
2023-01-17T05:51:41.511Z,54.73
2023-01-17T05:54:08.460Z,54.64
2023-01-17T05:56:35.544Z,54.45
2023-01-17T05:59:02.548Z,54.28
2023-01-17T06:01:29.467Z,54.34
2023-01-17T06:03:56.470Z,54.51
2023-01-17T06:06:23.428Z,54.24
2023-01-17T06:08:50.559Z,54.14
2023-01-17T06:11:18.573Z,54.32
2023-01-17T06:13:45.729Z,54.43
2023-01-17T06:16:12.631Z,54.11
2023-01-17T06:18:39.601Z,54.12
2023-01-17T06:21:06.463Z,53.97
2023-01-17T06:23:33.598Z,54.39
2023-01-17T06:26:03.637Z,53.71
2023-01-17T06:28:30.605Z,54.31
2023-01-17T06:30:57.505Z,55.16
2023-01-17T06:33:24.598Z,56.15
2023-01-17T06:35:52.592Z,56.75
2023-01-17T06:38:19.779Z,57.15
2023-01-17T06:40:46.804Z,57.80
2023-01-17T06:43:13.783Z,57.94
2023-01-17T06:45:40.707Z,58.44
2023-01-17T06:48:07.960Z,59.07
2023-01-17T06:50:35.062Z,60.02
2023-01-17T06:53:04.664Z,60.60
2023-01-17T06:55:33.913Z,60.60
2023-01-17T06:58:02.911Z,60.41
2023-01-17T07:00:31.267Z,60.80
2023-01-17T07:02:58.530Z,61.15
2023-01-17T07:05:25.592Z,61.59
2023-01-17T07:07:53.636Z,61.57
2023-01-17T07:10:21.508Z,61.94
2023-01-17T07:12:48.566Z,62.23
2023-01-17T07:15:15.498Z,62.32
2023-01-17T07:17:42.409Z,62.28
2023-01-17T07:20:10.016Z,62.63
2023-01-17T07:22:37.957Z,62.74
2023-01-17T07:25:05.461Z,62.85
2023-01-17T07:27:33.629Z,62.69
2023-01-17T07:30:00.806Z,62.63
2023-01-17T07:32:28.395Z,62.95
2023-01-17T07:34:57.657Z,63.21
2023-01-17T07:37:26.301Z,62.86
2023-01-17T07:39:53.900Z,62.89
2023-01-17T07:42:23.222Z,63.22
2023-01-17T07:44:51.074Z,63.72
2023-01-17T07:47:17.977Z,63.30
2023-01-17T07:49:44.871Z,63.47
2023-01-17T07:52:11.822Z,63.34
2023-01-17T07:54:38.780Z,63.66
2023-01-17T07:57:06.246Z,63.55
2023-01-17T07:59:34.714Z,63.72
2023-01-17T08:02:02.364Z,63.88
2023-01-17T08:04:34.889Z,64.15
2023-01-17T08:07:02.480Z,63.73
2023-01-17T08:09:32.386Z,63.83
2023-01-17T08:11:59.421Z,63.91
2023-01-17T08:14:26.181Z,63.80
2023-01-17T08:16:53.328Z,63.58
2023-01-17T08:19:20.639Z,63.61
2023-01-17T08:21:47.745Z,63.22
2023-01-17T08:24:14.801Z,63.10
2023-01-17T08:26:41.778Z,63.80
2023-01-17T08:29:09.395Z,63.54
2023-01-17T08:31:37.003Z,63.69
2023-01-17T08:34:04.503Z,64.02
2023-01-17T08:36:31.509Z,64.00
2023-01-17T08:38:58.490Z,63.70
2023-01-17T08:41:27.506Z,63.74
2023-01-17T08:43:54.415Z,63.49
2023-01-17T08:46:21.324Z,63.28
2023-01-17T08:48:48.158Z,63.69
2023-01-17T08:51:15.076Z,63.67
2023-01-17T08:53:42.681Z,63.77
2023-01-17T08:56:09.361Z,63.90
2023-01-17T08:58:36.466Z,64.15
2023-01-17T09:01:05.013Z,63.96
2023-01-17T09:03:33.928Z,64.23
2023-01-17T09:06:09.213Z,64.04
2023-01-17T09:08:36.375Z,63.55
2023-01-17T09:11:13.672Z,63.15
2023-01-17T09:13:40.846Z,63.40
2023-01-17T09:16:08.353Z,63.44
2023-01-17T09:18:36.640Z,63.53
2023-01-17T09:21:11.799Z,63.34
2023-01-17T09:23:39.164Z,63.04
2023-01-17T09:26:06.317Z,63.13
2023-01-17T09:28:43.835Z,62.92
2023-01-17T09:31:10.839Z,63.04
2023-01-17T09:33:38.547Z,63.20
2023-01-17T09:36:05.864Z,62.35
2023-01-17T09:38:32.970Z,62.06
2023-01-17T09:41:01.788Z,62.33
2023-01-17T09:43:35.251Z,62.52
2023-01-17T09:46:03.128Z,62.86
2023-01-17T09:48:37.865Z,62.43
2023-01-17T09:51:13.649Z,62.49
2023-01-17T09:53:41.784Z,62.32
2023-01-17T09:56:22.942Z,62.18
2023-01-17T09:58:53.241Z,62.18
2023-01-17T10:01:26.722Z,61.57
2023-01-17T10:04:12.232Z,61.66
2023-01-17T10:07:09.648Z,61.76
2023-01-17T10:09:53.323Z,61.64
2023-01-17T10:12:57.545Z,61.80
2023-01-17T10:16:07.345Z,61.23
2023-01-17T10:19:00.774Z,61.15
2023-01-17T10:21:49.769Z,61.08
2023-01-17T10:24:31.228Z,61.07
2023-01-17T10:27:00.710Z,61.01
2023-01-17T10:29:33.549Z,61.34
2023-01-17T10:32:01.721Z,61.21
2023-01-17T10:34:34.868Z,61.43
2023-01-17T10:37:31.689Z,60.98
2023-01-17T10:40:12.053Z,61.50
2023-01-17T10:42:48.475Z,61.00
2023-01-17T10:45:20.785Z,61.23
2023-01-17T10:47:53.719Z,60.88
2023-01-17T10:50:22.134Z,60.96
2023-01-17T10:53:04.363Z,60.86
2023-01-17T10:55:44.224Z,60.87
2023-01-17T10:58:15.135Z,60.68
2023-01-17T11:00:48.268Z,60.49
2023-01-17T11:03:17.701Z,60.79
2023-01-17T11:05:44.702Z,60.72
2023-01-17T11:08:13.632Z,60.44
2023-01-17T11:10:54.566Z,60.46
2023-01-17T11:13:36.473Z,60.53
2023-01-17T11:16:06.760Z,60.65
2023-01-17T11:18:38.735Z,60.87
2023-01-17T11:21:15.935Z,60.70
2023-01-17T11:23:47.695Z,61.06
2023-01-17T11:26:31.849Z,61.14
2023-01-17T11:29:19.622Z,61.48
2023-01-17T11:31:46.533Z,61.75
2023-01-17T11:34:27.351Z,61.66
2023-01-17T11:37:10.483Z,61.81
2023-01-17T11:39:37.521Z,59.98
2023-01-17T11:42:06.458Z,59.77
2023-01-17T11:44:40.112Z,59.55
2023-01-17T11:47:11.269Z,59.71
2023-01-17T11:49:42.423Z,59.61
2023-01-17T11:52:22.350Z,59.87
2023-01-17T11:54:50.321Z,60.09
2023-01-17T11:57:24.380Z,60.50
2023-01-17T11:59:56.196Z,61.05
2023-01-17T12:02:38.469Z,60.87
2023-01-17T12:05:14.644Z,61.13
2023-01-17T12:07:49.950Z,60.82
2023-01-17T12:10:19.642Z,61.00
2023-01-17T12:13:13.984Z,61.17
2023-01-17T12:16:00.533Z,61.83
2023-01-17T12:18:39.484Z,62.18
2023-01-17T12:21:18.061Z,62.27
2023-01-17T12:23:51.070Z,62.38
2023-01-17T12:26:29.923Z,62.58
2023-01-17T12:29:11.929Z,62.49
2023-01-17T12:32:05.093Z,62.99
2023-01-17T12:34:55.635Z,62.69
2023-01-17T12:37:46.408Z,62.49
2023-01-17T12:40:30.769Z,62.24
2023-01-17T12:43:37.432Z,61.96
2023-01-17T12:46:31.455Z,61.75
2023-01-17T12:49:04.506Z,61.05
2023-01-17T12:51:36.759Z,61.57
2023-01-17T12:54:24.701Z,61.51
2023-01-17T12:56:57.132Z,62.09
2023-01-17T12:59:42.786Z,62.21
2023-01-17T13:02:35.904Z,62.82
2023-01-17T13:05:11.096Z,63.25
2023-01-17T13:07:59.792Z,63.05
2023-01-17T13:10:39.757Z,63.35
2023-01-17T13:13:24.288Z,63.36
2023-01-17T13:16:05.429Z,63.91
2023-01-17T13:18:33.593Z,63.67
2023-01-17T13:21:06.219Z,63.86
2023-01-17T13:23:39.159Z,64.02
2023-01-17T13:26:18.869Z,64.09
2023-01-17T13:29:00.359Z,64.12
2023-01-17T13:31:54.232Z,63.86
2023-01-17T13:35:00.973Z,64.01
2023-01-17T13:37:54.737Z,63.93
2023-01-17T13:40:29.642Z,63.63
2023-01-17T13:43:00.290Z,64.35
2023-01-17T13:45:28.394Z,64.34
2023-01-17T13:48:10.364Z,64.01
2023-01-17T13:50:37.474Z,64.07
2023-01-17T13:53:39.625Z,63.98
2023-01-17T13:56:21.760Z,64.45
2023-01-17T13:58:54.679Z,64.25
2023-01-17T14:01:24.402Z,64.51
2023-01-17T14:03:52.231Z,63.38
2023-01-17T14:06:44.784Z,62.74
2023-01-17T14:09:22.779Z,62.28
2023-01-17T14:11:55.203Z,62.15
2023-01-17T14:14:40.288Z,62.11
2023-01-17T14:17:16.517Z,62.81
2023-01-17T14:19:48.591Z,63.49
2023-01-17T14:22:19.417Z,63.53
2023-01-17T14:24:57.192Z,63.76
2023-01-17T14:27:25.750Z,63.57
2023-01-17T14:29:57.006Z,63.74
2023-01-17T14:32:33.701Z,63.97
2023-01-17T14:35:01.649Z,64.53
2023-01-17T14:37:32.516Z,64.66
2023-01-17T14:40:01.070Z,65.01
2023-01-17T14:42:31.857Z,64.64
2023-01-17T14:45:14.539Z,64.68
2023-01-17T14:47:45.218Z,64.54
2023-01-17T14:50:19.083Z,64.96
2023-01-17T14:52:46.287Z,65.29
2023-01-17T14:55:21.040Z,64.82
2023-01-17T14:57:58.678Z,65.29
2023-01-17T15:00:29.563Z,65.09
2023-01-17T15:02:58.687Z,64.94
2023-01-17T15:05:27.446Z,65.02
2023-01-17T15:07:56.251Z,65.34
2023-01-17T15:10:31.037Z,65.20
2023-01-17T15:13:05.241Z,64.52
2023-01-17T15:15:37.916Z,64.52
2023-01-17T15:18:14.185Z,64.42
2023-01-17T15:20:49.389Z,64.24
2023-01-17T15:23:19.714Z,64.15
2023-01-17T15:25:49.022Z,64.13
2023-01-17T15:28:16.829Z,64.26
2023-01-17T15:31:09.146Z,64.00
2023-01-17T15:33:39.276Z,63.91
2023-01-17T15:36:30.693Z,63.92
2023-01-17T15:39:01.944Z,63.40
2023-01-17T15:41:38.359Z,63.43
2023-01-17T15:44:06.086Z,63.79
2023-01-17T15:46:42.333Z,63.57
2023-01-17T15:49:24.019Z,63.56
2023-01-17T15:51:54.120Z,63.59
2023-01-17T15:54:37.104Z,63.63
2023-01-17T15:57:20.436Z,64.15
2023-01-17T15:59:53.303Z,63.47
2023-01-17T16:02:30.042Z,63.96
2023-01-17T16:04:59.198Z,63.90
2023-01-17T16:07:36.493Z,63.63
2023-01-17T16:10:17.702Z,63.78
2023-01-17T16:12:46.580Z,64.11
2023-01-17T16:15:15.342Z,64.20
2023-01-17T16:17:45.952Z,64.14
2023-01-17T16:20:19.907Z,64.62
2023-01-17T16:22:48.042Z,64.35
2023-01-17T16:25:18.420Z,64.49
2023-01-17T16:27:46.347Z,64.60
2023-01-17T16:30:16.392Z,64.91
2023-01-17T16:32:48.885Z,64.81
2023-01-17T16:35:22.423Z,64.57
2023-01-17T16:37:56.612Z,64.54
2023-01-17T16:40:27.177Z,64.15
2023-01-17T16:42:55.904Z,63.89
2023-01-17T16:45:24.916Z,63.31
2023-01-17T16:47:53.888Z,62.83
2023-01-17T16:50:23.749Z,63.10
2023-01-17T16:52:52.034Z,62.44
2023-01-17T16:55:23.061Z,62.47
2023-01-17T16:57:52.067Z,62.34
2023-01-17T17:00:19.907Z,62.14
2023-01-17T17:02:51.001Z,61.90
2023-01-17T17:05:18.509Z,61.44
2023-01-17T17:07:50.127Z,61.66
2023-01-17T17:10:19.900Z,61.51
2023-01-17T17:12:47.245Z,61.00
2023-01-17T17:15:14.405Z,61.08
2023-01-17T17:17:43.361Z,60.72
2023-01-17T17:20:13.499Z,60.87
2023-01-17T17:22:41.087Z,60.36
2023-01-17T17:25:08.229Z,60.45
2023-01-17T17:27:35.109Z,60.27
2023-01-17T17:30:01.922Z,60.07
2023-01-17T17:32:29.087Z,60.30
2023-01-17T17:34:55.833Z,59.81
2023-01-17T17:37:23.718Z,59.79
2023-01-17T17:39:50.677Z,59.82
2023-01-17T17:42:19.772Z,59.89
2023-01-17T17:44:46.826Z,59.71
2023-01-17T17:47:13.800Z,59.46
2023-01-17T17:49:41.030Z,59.43
2023-01-17T17:52:08.858Z,59.36
2023-01-17T17:54:36.907Z,59.58
2023-01-17T17:57:03.911Z,59.59
2023-01-17T17:59:31.292Z,59.60
2023-01-17T18:02:00.040Z,59.04
2023-01-17T18:04:27.418Z,59.11
2023-01-17T18:06:58.267Z,59.06
2023-01-17T18:09:25.325Z,59.25
2023-01-17T18:11:54.875Z,58.51
2023-01-17T18:14:27.801Z,58.82
2023-01-17T18:16:55.904Z,58.38
2023-01-17T18:19:26.654Z,58.34
2023-01-17T18:21:55.953Z,58.23
2023-01-17T18:24:25.715Z,58.03
2023-01-17T18:26:57.400Z,57.99
2023-01-17T18:29:25.126Z,58.48
2023-01-17T18:31:53.397Z,57.81
2023-01-17T18:34:24.066Z,58.25
2023-01-17T18:36:51.660Z,58.04
2023-01-17T18:39:24.731Z,58.07
2023-01-17T18:41:51.842Z,58.17
2023-01-17T18:44:21.948Z,57.79
2023-01-17T18:46:55.148Z,57.96
2023-01-17T18:49:23.124Z,57.89
2023-01-17T18:51:51.480Z,57.77
2023-01-17T18:54:21.287Z,57.99
2023-01-17T18:56:51.163Z,57.67
2023-01-17T18:59:27.608Z,57.55
2023-01-17T19:01:57.895Z,57.61
2023-01-17T19:04:28.795Z,57.42
2023-01-17T19:06:58.910Z,57.47
2023-01-17T19:09:44.785Z,57.40
2023-01-17T19:12:12.171Z,57.70
2023-01-17T19:14:40.633Z,57.36
2023-01-17T19:17:13.691Z,57.32
2023-01-17T19:19:41.119Z,57.66
2023-01-17T19:22:08.564Z,57.48
2023-01-17T19:24:38.350Z,57.41
2023-01-17T19:27:07.875Z,57.48
2023-01-17T19:29:35.540Z,57.26
2023-01-17T19:32:03.673Z,57.38
2023-01-17T19:34:30.620Z,57.21
2023-01-17T19:36:57.643Z,57.44
2023-01-17T19:39:27.196Z,57.19
2023-01-17T19:41:54.132Z,57.19
2023-01-17T19:44:21.052Z,57.13
2023-01-17T19:46:48.814Z,57.39
2023-01-17T19:49:19.805Z,57.37
2023-01-17T19:51:46.792Z,57.46
2023-01-17T19:54:15.262Z,56.88
2023-01-17T20:44:12.923Z,56.83
2023-01-17T21:05:46.400Z,56.77
2023-01-17T21:49:17.400Z,56.02
2023-01-17T22:23:15.834Z,56.14
2023-01-17T22:25:42.884Z,56.12
2023-01-17T22:28:09.683Z,56.30
2023-01-17T22:30:37.352Z,56.09
2023-01-17T22:33:04.371Z,55.99
2023-01-17T22:35:31.265Z,56.14
2023-01-17T22:37:58.217Z,56.15
2023-01-17T22:40:26.298Z,56.38
2023-01-17T22:42:53.235Z,56.05
2023-01-17T22:45:20.202Z,56.23
2023-01-17T22:47:46.893Z,56.11
2023-01-17T22:50:13.850Z,56.13
2023-01-17T22:52:40.752Z,56.30
2023-01-17T22:55:07.873Z,56.13
2023-01-17T22:57:34.781Z,56.11
2023-01-17T23:00:01.722Z,56.47
2023-01-17T23:02:28.390Z,56.40
2023-01-17T23:04:55.203Z,56.00
2023-01-17T23:07:26.461Z,56.29
2023-01-17T23:09:53.657Z,56.30
2023-01-17T23:12:20.383Z,55.98
2023-01-17T23:15:05.856Z,56.11
2023-01-17T23:17:51.620Z,56.02
2023-01-17T23:20:18.624Z,56.02
2023-01-17T23:22:45.496Z,56.10
2023-01-17T23:25:14.195Z,56.50
2023-01-17T23:28:04.224Z,56.48
2023-01-17T23:30:37.457Z,56.33
2023-01-17T23:33:13.253Z,56.43
2023-01-17T23:35:43.008Z,56.54
2023-01-17T23:38:26.551Z,55.96
2023-01-17T23:41:12.506Z,56.36
2023-01-17T23:43:39.443Z,56.08
2023-01-17T23:46:11.726Z,56.24
2023-01-17T23:48:38.643Z,56.44
2023-01-17T23:51:08.342Z,56.53
2023-01-17T23:53:36.750Z,56.38
2023-01-17T23:56:21.663Z,56.26
2023-01-17T23:58:48.632Z,56.27
